createdAt,value
2023-04-30T00:00:38.307Z,98891.53
2023-04-30T00:03:04.996Z,98883.59
2023-04-30T00:05:32.030Z,98887.41
2023-04-30T00:07:58.500Z,98891.88
2023-04-30T00:10:24.928Z,98888.38
2023-04-30T00:12:51.343Z,98895.75
2023-04-30T00:15:17.858Z,98886.38
2023-04-30T00:17:44.280Z,98892.13
2023-04-30T00:20:11.607Z,98889.75
2023-04-30T00:22:38.975Z,98882.03
2023-04-30T00:25:05.563Z,98885.13
2023-04-30T00:27:32.014Z,98887.03
2023-04-30T00:29:58.759Z,98883.91
2023-04-30T00:32:25.443Z,98881.72
2023-04-30T00:34:52.162Z,98885.94
2023-04-30T00:37:19.418Z,98887.72
2023-04-30T00:39:45.958Z,98892.38
2023-04-30T00:42:12.480Z,98888.19
2023-04-30T00:44:38.962Z,98891.56
2023-04-30T00:47:05.645Z,98892.19
2023-04-30T00:49:32.127Z,98889.75
2023-04-30T00:51:58.620Z,98888.84
2023-04-30T00:54:25.385Z,98894.13
2023-04-30T00:56:52.195Z,98892.56
2023-04-30T00:59:18.845Z,98890.31
2023-04-30T01:01:46.008Z,98891.66
2023-04-30T01:04:12.965Z,98889.19
2023-04-30T01:06:39.790Z,98888.75
2023-04-30T01:09:06.890Z,98880.91
2023-04-30T01:11:51.385Z,98883.19
2023-04-30T01:14:27.644Z,98876.84
2023-04-30T01:17:08.593Z,98872.94
2023-04-30T01:19:43.034Z,98880.38
2023-04-30T01:22:42.507Z,98879.66
2023-04-30T01:25:27.757Z,98877.25
2023-04-30T01:28:09.578Z,98869.81
2023-04-30T01:30:37.089Z,98872.84
2023-04-30T01:33:03.888Z,98869.94
2023-04-30T01:35:50.170Z,98877.19
2023-04-30T01:38:26.948Z,98881.38
2023-04-30T01:41:09.197Z,98873.66
2023-04-30T01:43:54.642Z,98868.63
2023-04-30T01:46:30.757Z,98880.56
2023-04-30T01:49:28.836Z,98882.31
2023-04-30T01:52:32.135Z,98887.47
2023-04-30T01:55:14.017Z,98888.66
2023-04-30T01:57:48.487Z,98889.38
2023-04-30T02:00:17.782Z,98890.56
2023-04-30T02:02:44.315Z,98884.19
2023-04-30T02:05:10.833Z,98886.63
2023-04-30T02:07:40.685Z,98884.47
2023-04-30T02:10:08.665Z,98875.91
2023-04-30T02:12:35.586Z,98875.09
2023-04-30T02:15:03.455Z,98873.75
2023-04-30T02:17:29.925Z,98872.63
2023-04-30T02:19:56.577Z,98870.56
2023-04-30T02:22:23.109Z,98867.38
2023-04-30T02:24:49.992Z,98864.91
2023-04-30T02:27:16.426Z,98875.09
2023-04-30T02:29:42.929Z,98875.91
2023-04-30T02:32:09.419Z,98875.66
2023-04-30T02:34:35.912Z,98890.19
2023-04-30T02:37:03.292Z,98885.53
2023-04-30T02:39:29.729Z,98888.66
2023-04-30T02:41:56.193Z,98886.19
2023-04-30T02:44:22.662Z,98888.09
2023-04-30T02:46:49.136Z,98883.91
2023-04-30T02:49:15.812Z,98885.84
2023-04-30T02:51:42.439Z,98887.13
2023-04-30T02:54:09.112Z,98887.59
2023-04-30T02:56:35.651Z,98885.00
2023-04-30T02:59:02.224Z,98882.94
2023-04-30T03:01:28.835Z,98888.75
2023-04-30T03:03:55.353Z,98881.91
2023-04-30T03:06:21.919Z,98892.19
2023-04-30T03:08:48.574Z,98878.41
2023-04-30T03:11:15.041Z,98873.03
2023-04-30T03:13:41.496Z,98886.47
2023-04-30T03:16:08.160Z,98881.31
2023-04-30T03:18:34.683Z,98874.41
2023-04-30T03:21:01.541Z,98877.09
2023-04-30T03:23:28.875Z,98875.81
2023-04-30T03:25:55.373Z,98876.84
2023-04-30T03:28:22.524Z,98871.09
2023-04-30T03:30:48.965Z,98867.19
2023-04-30T03:33:15.504Z,98865.53
2023-04-30T03:35:42.183Z,98865.53
2023-04-30T03:38:08.851Z,98874.81
2023-04-30T03:40:35.457Z,98865.13
2023-04-30T03:43:02.321Z,98863.66
2023-04-30T03:45:29.038Z,98870.19
2023-04-30T03:47:55.846Z,98871.28
2023-04-30T03:50:22.603Z,98871.91
2023-04-30T03:52:49.056Z,98873.53
2023-04-30T03:55:16.586Z,98862.84
2023-04-30T03:57:43.429Z,98868.47
2023-04-30T04:00:11.019Z,98861.81
2023-04-30T04:02:42.450Z,98872.66
2023-04-30T04:05:11.073Z,98867.47
2023-04-30T04:07:38.061Z,98872.28
2023-04-30T04:10:04.862Z,98870.19
2023-04-30T04:12:32.088Z,98868.38
2023-04-30T04:14:58.535Z,98871.84
2023-04-30T04:17:25.301Z,98870.66
2023-04-30T04:19:52.104Z,98881.47
2023-04-30T04:22:19.229Z,98878.09
2023-04-30T04:24:47.978Z,98874.09
2023-04-30T04:27:20.374Z,98880.94
2023-04-30T04:29:47.897Z,98883.28
2023-04-30T04:32:14.702Z,98880.38
2023-04-30T04:34:43.611Z,98883.56
2023-04-30T04:37:10.089Z,98879.84
2023-04-30T04:39:37.308Z,98884.38
2023-04-30T04:42:04.965Z,98876.56
2023-04-30T04:44:32.343Z,98877.13
2023-04-30T04:46:59.060Z,98870.19
2023-04-30T04:49:25.685Z,98877.66
2023-04-30T04:51:52.250Z,98879.38
2023-04-30T04:54:18.825Z,98872.09
2023-04-30T04:56:45.457Z,98875.91
2023-04-30T04:59:12.266Z,98879.84
2023-04-30T05:01:38.921Z,98877.47
2023-04-30T05:04:05.578Z,98878.00
2023-04-30T05:06:32.284Z,98876.75
2023-04-30T05:08:59.568Z,98882.03
2023-04-30T05:11:26.044Z,98882.75
2023-04-30T05:13:52.481Z,98877.56
2023-04-30T05:16:19.101Z,98884.56
2023-04-30T05:18:45.608Z,98878.78
2023-04-30T05:21:12.053Z,98884.50
2023-04-30T05:23:38.539Z,98887.53
2023-04-30T05:26:05.354Z,98880.81
2023-04-30T05:28:31.836Z,98878.91
2023-04-30T05:30:58.277Z,98891.47
2023-04-30T05:33:24.797Z,98889.38
2023-04-30T05:35:51.230Z,98888.19
2023-04-30T05:38:17.762Z,98890.16
2023-04-30T05:40:44.166Z,98888.38
2023-04-30T05:43:10.704Z,98896.25
2023-04-30T05:45:37.145Z,98892.91
2023-04-30T05:48:04.173Z,98884.28
2023-04-30T05:50:30.695Z,98885.66
2023-04-30T05:52:57.173Z,98886.22
2023-04-30T05:55:23.615Z,98886.34
2023-04-30T05:57:50.099Z,98884.63
2023-04-30T06:00:16.799Z,98889.53
2023-04-30T06:02:43.443Z,98891.66
2023-04-30T06:05:10.069Z,98889.09
2023-04-30T06:07:36.542Z,98882.34
2023-04-30T06:10:03.221Z,98889.72
2023-04-30T06:12:29.850Z,98898.69
2023-04-30T06:14:56.389Z,98896.09
2023-04-30T06:17:22.875Z,98890.50
2023-04-30T06:19:49.375Z,98887.78
2023-04-30T06:22:15.786Z,98891.19
2023-04-30T06:24:42.299Z,98885.38
2023-04-30T06:27:08.950Z,98887.81
2023-04-30T06:29:35.419Z,98883.16
2023-04-30T06:32:01.897Z,98890.09
2023-04-30T06:34:28.438Z,98889.94
2023-04-30T06:36:54.876Z,98890.22
2023-04-30T06:39:21.305Z,98880.63
2023-04-30T06:41:47.991Z,98881.19
2023-04-30T06:44:15.026Z,98880.72
2023-04-30T06:46:41.508Z,98892.56
2023-04-30T06:49:07.998Z,98890.53
2023-04-30T06:51:34.434Z,98883.16
2023-04-30T06:54:00.913Z,98888.41
2023-04-30T06:56:27.393Z,98886.00
2023-04-30T06:58:53.869Z,98875.31
2023-04-30T07:01:20.507Z,98883.34
2023-04-30T07:03:47.306Z,98875.31
2023-04-30T07:06:14.323Z,98877.59
2023-04-30T07:08:41.309Z,98871.50
2023-04-30T07:11:07.975Z,98864.50
2023-04-30T07:13:34.688Z,98865.50
2023-04-30T07:16:01.219Z,98872.97
2023-04-30T07:18:27.781Z,98866.78
2023-04-30T07:20:54.994Z,98867.91
2023-04-30T07:23:21.750Z,98865.06
2023-04-30T07:25:48.518Z,98864.78
2023-04-30T07:28:14.984Z,98874.00
2023-04-30T07:30:41.648Z,98868.69
2023-04-30T07:33:09.675Z,98871.50
2023-04-30T07:35:36.543Z,98880.53
2023-04-30T07:38:03.425Z,98877.13
2023-04-30T07:43:01.225Z,98877.78
2023-04-30T07:45:27.681Z,98871.09
2023-04-30T07:47:54.208Z,98877.94
2023-04-30T07:50:20.735Z,98863.78
2023-04-30T07:52:49.405Z,98873.91
2023-04-30T07:55:16.238Z,98862.75
2023-04-30T07:57:42.675Z,98867.16
2023-04-30T08:00:09.508Z,98868.53
2023-04-30T08:02:44.075Z,98870.50
2023-04-30T08:05:11.231Z,98868.88
2023-04-30T08:07:37.799Z,98869.59
2023-04-30T08:10:04.619Z,98857.53
2023-04-30T08:12:31.286Z,98871.97
2023-04-30T08:15:03.163Z,98857.66
2023-04-30T08:17:29.734Z,98864.94
2023-04-30T08:19:56.505Z,98869.31
2023-04-30T08:22:23.553Z,98871.88
2023-04-30T08:24:50.304Z,98863.72
2023-04-30T08:27:16.814Z,98872.19
2023-04-30T08:29:43.257Z,98879.19
2023-04-30T08:32:09.944Z,98881.59
2023-04-30T08:34:36.587Z,98873.56
2023-04-30T08:37:03.095Z,98865.78
2023-04-30T08:39:29.540Z,98884.56
2023-04-30T08:41:56.747Z,98870.53
2023-04-30T08:44:24.043Z,98877.97
2023-04-30T08:46:54.746Z,98871.47
2023-04-30T08:49:25.442Z,98873.53
2023-04-30T08:51:52.814Z,98875.00
2023-04-30T08:54:22.569Z,98867.53
2023-04-30T08:56:52.178Z,98865.94
2023-04-30T08:59:19.214Z,98858.53
2023-04-30T09:01:45.901Z,98859.56
2023-04-30T09:04:12.502Z,98861.97
2023-04-30T09:06:39.039Z,98851.75
2023-04-30T09:09:13.943Z,98862.25
2023-04-30T09:11:40.883Z,98858.72
2023-04-30T09:14:08.135Z,98856.59
2023-04-30T09:16:49.253Z,98860.06
2023-04-30T09:19:29.486Z,98853.19
2023-04-30T09:21:56.500Z,98865.84
2023-04-30T09:24:23.952Z,98858.34
2023-04-30T09:26:51.415Z,98857.28
2023-04-30T09:29:17.890Z,98863.91
2023-04-30T09:31:47.097Z,98874.13
2023-04-30T09:34:14.500Z,98870.19
2023-04-30T09:36:57.036Z,98863.94
2023-04-30T09:39:24.018Z,98874.53
2023-04-30T09:41:51.567Z,98865.81
2023-04-30T09:44:32.233Z,98868.66
2023-04-30T09:46:59.290Z,98868.28
2023-04-30T09:49:27.312Z,98867.91
2023-04-30T09:51:58.475Z,98862.59
2023-04-30T09:54:32.223Z,98863.53
2023-04-30T09:57:01.535Z,98868.91
2023-04-30T09:59:39.715Z,98861.53
2023-04-30T10:02:08.254Z,98860.94
2023-04-30T10:04:39.565Z,98863.31
2023-04-30T10:07:10.409Z,98860.06
2023-04-30T10:09:44.712Z,98862.00
2023-04-30T10:12:16.167Z,98857.34
2023-04-30T10:14:51.944Z,98859.13
2023-04-30T10:17:20.739Z,98857.59
2023-04-30T10:19:50.814Z,98858.50
2023-04-30T10:22:20.477Z,98851.88
2023-04-30T10:24:48.514Z,98851.72
2023-04-30T10:27:15.163Z,98853.06
2023-04-30T10:29:42.715Z,98846.59
2023-04-30T10:32:13.008Z,98843.63
2023-04-30T10:34:57.467Z,98849.84
2023-04-30T10:37:26.837Z,98841.94
2023-04-30T10:39:53.957Z,98841.66
2023-04-30T10:42:20.670Z,98836.41
2023-04-30T10:44:47.423Z,98836.72
2023-04-30T10:47:13.944Z,98834.75
2023-04-30T10:49:48.088Z,98827.06
2023-04-30T10:52:14.574Z,98829.72
2023-04-30T10:54:49.913Z,98822.50
2023-04-30T10:57:20.249Z,98818.69
2023-04-30T11:00:14.978Z,98812.06
2023-04-30T11:02:43.822Z,98817.94
2023-04-30T11:05:11.945Z,98816.97
2023-04-30T11:07:56.526Z,98819.00
2023-04-30T11:10:32.036Z,98801.09
2023-04-30T11:13:03.243Z,98810.56
2023-04-30T11:15:45.098Z,98820.25
2023-04-30T11:18:13.786Z,98812.63
2023-04-30T11:20:42.089Z,98823.97
2023-04-30T11:23:11.185Z,98809.97
2023-04-30T11:25:43.023Z,98812.78
2023-04-30T11:28:24.054Z,98806.81
2023-04-30T11:30:58.044Z,98802.78
2023-04-30T11:33:29.798Z,98797.22
2023-04-30T11:35:57.648Z,98788.69
2023-04-30T11:38:33.830Z,98786.66
2023-04-30T11:41:01.470Z,98794.56
2023-04-30T11:43:31.234Z,98786.13
2023-04-30T11:46:05.794Z,98787.31
2023-04-30T11:48:34.214Z,98785.53
2023-04-30T11:51:04.397Z,98787.41
2023-04-30T11:53:31.069Z,98787.13
2023-04-30T11:55:57.521Z,98776.94
2023-04-30T11:58:23.934Z,98785.25
2023-04-30T12:00:52.370Z,98776.81
2023-04-30T12:03:19.146Z,98778.69
2023-04-30T12:05:46.567Z,98767.81
2023-04-30T12:08:13.155Z,98771.75
2023-04-30T12:10:40.760Z,98755.13
2023-04-30T12:13:07.238Z,98754.13
2023-04-30T12:15:34.301Z,98757.13
2023-04-30T12:18:12.111Z,98753.41
2023-04-30T12:20:40.090Z,98761.75
2023-04-30T12:23:08.017Z,98754.31
2023-04-30T12:25:42.430Z,98744.75
2023-04-30T12:28:10.168Z,98745.97
2023-04-30T12:30:36.759Z,98746.84
2023-04-30T12:33:03.679Z,98748.19
2023-04-30T12:35:32.449Z,98739.47
2023-04-30T12:38:04.389Z,98737.59
2023-04-30T12:40:30.917Z,98736.91
2023-04-30T12:43:02.832Z,98742.78
2023-04-30T12:45:52.491Z,98744.00
2023-04-30T12:48:24.254Z,98736.81
2023-04-30T12:51:01.678Z,98725.88
2023-04-30T12:53:29.547Z,98721.63
2023-04-30T12:56:15.539Z,98726.63
2023-04-30T12:58:49.497Z,98723.84
2023-04-30T13:01:24.478Z,98725.97
2023-04-30T13:03:52.778Z,98724.34
2023-04-30T13:06:21.476Z,98723.31
2023-04-30T13:08:58.106Z,98722.25
2023-04-30T13:11:26.748Z,98712.59
2023-04-30T13:13:55.465Z,98714.91
2023-04-30T13:16:22.999Z,98711.78
2023-04-30T13:18:49.507Z,98713.97
2023-04-30T13:21:15.919Z,98713.53
2023-04-30T13:23:51.805Z,98710.47
2023-04-30T13:26:20.472Z,98711.06
2023-04-30T13:28:47.102Z,98699.59
2023-04-30T13:31:13.561Z,98699.41
2023-04-30T13:33:40.066Z,98694.41
2023-04-30T13:36:06.796Z,98695.91
2023-04-30T13:38:33.585Z,98701.41
2023-04-30T13:41:00.000Z,98691.28
2023-04-30T13:43:26.519Z,98691.41
2023-04-30T13:45:53.059Z,98686.72
2023-04-30T13:48:19.550Z,98683.31
2023-04-30T13:50:46.010Z,98678.97
2023-04-30T13:53:12.599Z,98684.38
2023-04-30T13:55:39.023Z,98686.56
2023-04-30T13:58:05.538Z,98684.53
2023-04-30T14:00:32.029Z,98686.63
2023-04-30T14:02:58.715Z,98678.78
2023-04-30T14:05:25.348Z,98674.28
2023-04-30T14:07:51.854Z,98671.50
2023-04-30T14:10:18.385Z,98664.06
2023-04-30T14:12:44.891Z,98664.28
2023-04-30T14:15:11.448Z,98657.91
2023-04-30T14:17:38.585Z,98659.22
2023-04-30T14:20:05.865Z,98655.78
2023-04-30T14:22:34.533Z,98657.06
2023-04-30T14:25:01.163Z,98648.50
2023-04-30T14:27:27.606Z,98656.03
2023-04-30T14:29:54.438Z,98659.31
2023-04-30T14:32:21.200Z,98649.44
2023-04-30T14:34:47.805Z,98653.31
2023-04-30T14:37:15.488Z,98644.31
2023-04-30T14:39:42.033Z,98641.72
2023-04-30T14:42:08.851Z,98638.84
2023-04-30T14:44:35.803Z,98639.91
2023-04-30T14:47:03.104Z,98635.97
2023-04-30T14:49:29.677Z,98625.94
2023-04-30T14:51:56.170Z,98632.03
2023-04-30T14:54:22.929Z,98627.69
2023-04-30T14:56:49.830Z,98631.81
2023-04-30T14:59:16.304Z,98627.47
2023-04-30T15:01:42.772Z,98628.22
2023-04-30T15:04:09.492Z,98627.16
2023-04-30T15:06:36.167Z,98631.09
2023-04-30T15:09:04.260Z,98620.78
2023-04-30T15:11:30.820Z,98617.19
2023-04-30T15:13:57.290Z,98607.00
2023-04-30T15:16:24.199Z,98609.50
2023-04-30T15:18:50.852Z,98609.66
2023-04-30T15:21:17.309Z,98613.25
2023-04-30T15:23:44.190Z,98615.50
2023-04-30T15:26:11.054Z,98612.53
2023-04-30T15:28:37.717Z,98607.88
2023-04-30T15:31:06.535Z,98600.66
2023-04-30T15:33:34.482Z,98597.91
2023-04-30T15:36:01.437Z,98595.13
2023-04-30T15:38:27.939Z,98602.88
2023-04-30T15:40:54.371Z,98594.31
2023-04-30T15:43:21.386Z,98588.78
2023-04-30T15:45:48.387Z,98597.16
2023-04-30T15:48:15.002Z,98586.84
2023-04-30T15:50:41.437Z,98580.66
2023-04-30T15:53:07.912Z,98579.66
2023-04-30T15:55:34.352Z,98580.19
2023-04-30T15:58:01.003Z,98576.91
2023-04-30T16:00:29.190Z,98573.78
2023-04-30T16:02:55.846Z,98578.16
2023-04-30T16:05:22.443Z,98574.09
2023-04-30T16:07:49.557Z,98575.38
2023-04-30T16:10:16.306Z,98569.59
2023-04-30T16:12:42.809Z,98569.19
2023-04-30T16:15:10.737Z,98563.59
2023-04-30T16:17:37.301Z,98561.13
2023-04-30T16:20:04.127Z,98563.81
2023-04-30T16:22:30.686Z,98562.31
2023-04-30T16:24:57.338Z,98554.47
2023-04-30T16:27:24.152Z,98555.28
2023-04-30T16:29:50.719Z,98541.78
2023-04-30T16:32:17.625Z,98540.13
2023-04-30T16:34:44.066Z,98553.09
2023-04-30T16:37:10.647Z,98542.09
2023-04-30T16:39:37.143Z,98541.84
2023-04-30T16:42:03.591Z,98547.50
2023-04-30T16:44:30.147Z,98545.03
2023-04-30T16:46:59.386Z,98532.94
2023-04-30T16:49:25.923Z,98542.09
2023-04-30T16:51:52.391Z,98536.78
2023-04-30T16:54:18.831Z,98542.66
2023-04-30T16:56:45.398Z,98540.28
2023-04-30T16:59:11.913Z,98544.50
2023-04-30T17:01:38.473Z,98539.25
2023-04-30T17:04:05.079Z,98541.63
2023-04-30T17:06:33.340Z,98541.75
2023-04-30T17:08:59.912Z,98533.97
2023-04-30T17:11:26.696Z,98536.94
2023-04-30T17:13:55.083Z,98535.81
2023-04-30T17:16:22.055Z,98536.75
2023-04-30T17:18:49.077Z,98535.91
2023-04-30T17:21:15.925Z,98537.66
2023-04-30T17:23:42.680Z,98530.38
2023-04-30T17:26:09.583Z,98531.91
2023-04-30T17:28:37.328Z,98524.19
2023-04-30T17:31:06.760Z,98535.44
2023-04-30T17:33:33.675Z,98531.94
2023-04-30T17:36:00.127Z,98526.34
2023-04-30T17:38:26.903Z,98533.94
2023-04-30T17:40:54.178Z,98533.91
2023-04-30T17:43:20.710Z,98536.22
2023-04-30T17:45:47.274Z,98537.94
2023-04-30T17:48:13.908Z,98539.38
2023-04-30T17:50:41.135Z,98543.84
2023-04-30T17:53:07.578Z,98540.94
2023-04-30T17:55:34.030Z,98544.66
2023-04-30T17:58:00.471Z,98542.81
2023-04-30T18:00:26.971Z,98533.28
2023-04-30T18:02:53.427Z,98539.19
2023-04-30T18:05:20.167Z,98543.47
2023-04-30T18:07:47.585Z,98544.81
2023-04-30T18:10:14.188Z,98547.81
2023-04-30T18:12:41.912Z,98544.25
2023-04-30T18:15:08.855Z,98548.84
2023-04-30T18:17:37.219Z,98539.97
2023-04-30T18:20:04.679Z,98548.97
2023-04-30T18:22:31.945Z,98548.00
2023-04-30T18:24:58.454Z,98547.09
2023-04-30T18:27:25.011Z,98549.56
2023-04-30T18:29:52.540Z,98541.28
2023-04-30T18:32:19.327Z,98546.25
2023-04-30T18:34:46.163Z,98546.00
2023-04-30T18:37:12.623Z,98545.56
2023-04-30T18:39:39.062Z,98550.88
2023-04-30T18:42:05.503Z,98554.22
2023-04-30T18:44:32.141Z,98560.78
2023-04-30T18:46:58.891Z,98551.03
2023-04-30T18:49:25.322Z,98550.06
2023-04-30T18:51:51.817Z,98555.97
2023-04-30T18:54:18.423Z,98552.72
2023-04-30T18:56:45.191Z,98561.91
2023-04-30T18:59:11.642Z,98560.88
2023-04-30T19:01:38.317Z,98567.78
2023-04-30T19:04:04.823Z,98566.34
2023-04-30T19:06:33.353Z,98567.56
2023-04-30T19:09:00.010Z,98575.25
2023-04-30T19:11:27.049Z,98568.59
2023-04-30T19:13:53.712Z,98571.63
2023-04-30T19:16:20.174Z,98564.34
2023-04-30T19:18:46.765Z,98564.53
2023-04-30T19:21:14.761Z,98571.88
2023-04-30T19:23:41.311Z,98566.59
2023-04-30T19:26:07.766Z,98571.69
2023-04-30T19:28:34.169Z,98569.44
2023-04-30T19:31:00.680Z,98571.69
2023-04-30T19:33:28.254Z,98566.16
2023-04-30T19:35:54.992Z,98571.44
2023-04-30T19:38:21.753Z,98575.72
2023-04-30T19:40:53.130Z,98583.44
2023-04-30T19:43:20.407Z,98579.75
2023-04-30T19:45:50.353Z,98576.50
2023-04-30T19:48:17.233Z,98582.38
2023-04-30T19:50:47.445Z,98573.41
2023-04-30T19:53:16.235Z,98584.19
2023-04-30T19:55:43.798Z,98573.00
2023-04-30T19:58:10.400Z,98582.22
2023-04-30T20:00:41.362Z,98583.00
2023-04-30T20:03:08.106Z,98583.06
2023-04-30T20:05:39.522Z,98582.78
2023-04-30T20:08:07.507Z,98583.03
2023-04-30T20:10:36.182Z,98580.38
2023-04-30T20:13:03.750Z,98580.81
2023-04-30T20:15:30.631Z,98570.00
2023-04-30T20:17:58.281Z,98577.09
2023-04-30T20:20:25.107Z,98567.28
2023-04-30T20:22:54.037Z,98574.53
2023-04-30T20:25:22.271Z,98573.75
2023-04-30T20:27:49.221Z,98566.63
2023-04-30T20:30:16.231Z,98577.59
2023-04-30T20:32:42.962Z,98578.09
2023-04-30T20:35:09.656Z,98570.19
2023-04-30T20:37:37.209Z,98576.94
2023-04-30T20:40:04.359Z,98574.63
2023-04-30T20:42:30.870Z,98571.59
2023-04-30T20:44:57.369Z,98573.63
2023-04-30T20:47:23.923Z,98564.97
2023-04-30T20:49:51.073Z,98561.72
2023-04-30T20:52:18.640Z,98562.34
2023-04-30T20:54:45.863Z,98559.75
2023-04-30T20:57:12.515Z,98569.09
2023-04-30T20:59:38.998Z,98566.00
2023-04-30T21:02:05.744Z,98566.34
2023-04-30T21:04:32.281Z,98560.06
2023-04-30T21:06:58.787Z,98558.56
2023-04-30T21:09:25.261Z,98565.78
2023-04-30T21:11:51.822Z,98562.81
2023-04-30T21:14:18.803Z,98567.47
2023-04-30T21:16:45.374Z,98566.91
2023-04-30T21:19:11.928Z,98571.53
2023-04-30T21:21:38.395Z,98568.38
2023-04-30T21:24:05.350Z,98567.16
2023-04-30T21:26:32.048Z,98562.56
2023-04-30T21:28:58.818Z,98559.31
2023-04-30T21:31:25.744Z,98553.16
2023-04-30T21:33:52.320Z,98558.09
2023-04-30T21:36:18.952Z,98553.00
2023-04-30T21:38:45.392Z,98554.13
2023-04-30T21:41:16.821Z,98549.13
2023-04-30T21:43:43.932Z,98546.25
2023-04-30T21:46:10.866Z,98547.88
2023-04-30T21:48:40.567Z,98545.13
2023-04-30T21:51:17.081Z,98543.25
2023-04-30T21:53:45.410Z,98546.88
2023-04-30T21:56:12.395Z,98544.44
2023-04-30T21:58:39.371Z,98537.63
2023-04-30T22:01:05.919Z,98534.53
2023-04-30T22:03:33.045Z,98533.44
2023-04-30T22:05:59.703Z,98528.34
2023-04-30T22:08:26.479Z,98528.78
2023-04-30T22:10:58.791Z,98526.25
2023-04-30T22:13:26.271Z,98514.38
2023-04-30T22:15:52.858Z,98520.16
2023-04-30T22:18:20.260Z,98515.44
2023-04-30T22:20:49.025Z,98511.00
2023-04-30T22:23:16.644Z,98515.66
2023-04-30T22:25:43.319Z,98519.13
2023-04-30T22:28:10.186Z,98513.16
2023-04-30T22:30:37.620Z,98506.19
2023-04-30T22:33:04.380Z,98508.56
2023-04-30T22:35:32.699Z,98501.63
2023-04-30T22:38:00.466Z,98504.56
2023-04-30T22:40:27.229Z,98504.00
2023-04-30T22:42:54.072Z,98506.00
2023-04-30T22:45:20.674Z,98496.66
2023-04-30T22:47:47.496Z,98501.91
2023-04-30T22:50:13.937Z,98507.00
2023-04-30T22:52:40.435Z,98502.22
2023-04-30T22:55:07.658Z,98496.59
2023-04-30T22:57:34.128Z,98504.97
2023-04-30T23:00:00.848Z,98504.25
2023-04-30T23:02:28.652Z,98499.34
2023-04-30T23:04:55.271Z,98511.03
2023-04-30T23:07:21.818Z,98510.94
2023-04-30T23:09:48.334Z,98497.88
2023-04-30T23:12:14.784Z,98503.44
2023-04-30T23:14:41.341Z,98503.50
2023-04-30T23:17:07.843Z,98497.63
2023-04-30T23:19:34.362Z,98493.63
2023-04-30T23:22:00.910Z,98494.53
2023-04-30T23:24:27.327Z,98489.34
2023-04-30T23:26:55.205Z,98489.91
2023-04-30T23:29:21.649Z,98487.47
2023-04-30T23:31:48.197Z,98496.25
2023-04-30T23:34:14.648Z,98488.47
2023-04-30T23:36:41.159Z,98486.09
2023-04-30T23:39:07.945Z,98488.19
2023-04-30T23:41:34.394Z,98484.81
2023-04-30T23:44:00.859Z,98490.97
2023-04-30T23:46:27.459Z,98485.09
2023-04-30T23:48:54.034Z,98487.91
2023-04-30T23:51:22.423Z,98478.09
2023-04-30T23:53:48.998Z,98480.72
2023-04-30T23:56:15.434Z,98471.03
2023-04-30T23:58:41.984Z,98463.22
